sensor_id;sensor_type;location;lat;lon;timestamp;P1;durP1;ratioP1;P2;durP2;ratioP2
55114;SDS011;41010;53.252;5.786;2023-05-16T00:00:51;5.50;;;0.70;;
55114;SDS011;41010;53.252;5.786;2023-05-16T00:03:18;6.22;;;0.85;;
55114;SDS011;41010;53.252;5.786;2023-05-16T00:05:46;8.02;;;1.08;;
55114;SDS011;41010;53.252;5.786;2023-05-16T00:08:14;4.85;;;0.90;;
55114;SDS011;41010;53.252;5.786;2023-05-16T00:10:42;6.82;;;0.68;;
55114;SDS011;41010;53.252;5.786;2023-05-16T00:13:10;7.60;;;1.00;;
55114;SDS011;41010;53.252;5.786;2023-05-16T00:15:38;5.68;;;0.82;;
55114;SDS011;41010;53.252;5.786;2023-05-16T00:18:05;7.25;;;1.25;;
55114;SDS011;41010;53.252;5.786;2023-05-16T00:20:34;4.95;;;0.65;;
55114;SDS011;41010;53.252;5.786;2023-05-16T00:23:01;4.22;;;0.73;;
55114;SDS011;41010;53.252;5.786;2023-05-16T00:25:28;9.02;;;1.00;;
55114;SDS011;41010;53.252;5.786;2023-05-16T00:27:56;6.93;;;1.02;;
55114;SDS011;41010;53.252;5.786;2023-05-16T00:30:24;3.47;;;0.70;;
55114;SDS011;41010;53.252;5.786;2023-05-16T00:35:20;4.75;;;0.63;;
55114;SDS011;41010;53.252;5.786;2023-05-16T00:37:47;4.18;;;0.60;;
55114;SDS011;41010;53.252;5.786;2023-05-16T00:40:14;5.00;;;0.90;;
55114;SDS011;41010;53.252;5.786;2023-05-16T00:42:42;11.85;;;0.80;;
55114;SDS011;41010;53.252;5.786;2023-05-16T00:45:09;3.20;;;0.73;;
55114;SDS011;41010;53.252;5.786;2023-05-16T00:47:38;6.75;;;1.10;;
55114;SDS011;41010;53.252;5.786;2023-05-16T00:50:05;4.32;;;0.80;;
55114;SDS011;41010;53.252;5.786;2023-05-16T00:52:32;4.28;;;0.95;;
55114;SDS011;41010;53.252;5.786;2023-05-16T00:55:00;4.07;;;0.60;;
55114;SDS011;41010;53.252;5.786;2023-05-16T00:57:28;11.88;;;0.90;;
55114;SDS011;41010;53.252;5.786;2023-05-16T00:59:55;4.28;;;0.73;;
55114;SDS011;41010;53.252;5.786;2023-05-16T01:02:23;6.53;;;0.77;;
55114;SDS011;41010;53.252;5.786;2023-05-16T01:04:55;10.60;;;0.88;;
55114;SDS011;41010;53.252;5.786;2023-05-16T01:07:22;6.38;;;0.75;;
55114;SDS011;41010;53.252;5.786;2023-05-16T01:09:50;2.28;;;0.77;;
55114;SDS011;41010;53.252;5.786;2023-05-16T01:12:19;4.90;;;0.60;;
55114;SDS011;41010;53.252;5.786;2023-05-16T01:14:50;5.13;;;0.70;;
55114;SDS011;41010;53.252;5.786;2023-05-16T01:17:22;4.93;;;0.70;;
55114;SDS011;41010;53.252;5.786;2023-05-16T01:20:02;5.75;;;0.57;;
55114;SDS011;41010;53.252;5.786;2023-05-16T01:22:34;4.65;;;0.80;;
55114;SDS011;41010;53.252;5.786;2023-05-16T01:25:05;7.45;;;1.10;;
55114;SDS011;41010;53.252;5.786;2023-05-16T01:27:36;6.10;;;0.98;;
55114;SDS011;41010;53.252;5.786;2023-05-16T01:30:15;8.23;;;0.90;;
55114;SDS011;41010;53.252;5.786;2023-05-16T01:32:42;3.85;;;0.70;;
55114;SDS011;41010;53.252;5.786;2023-05-16T01:35:10;13.02;;;1.13;;
55114;SDS011;41010;53.252;5.786;2023-05-16T01:37:40;4.43;;;0.77;;
55114;SDS011;41010;53.252;5.786;2023-05-16T01:40:11;7.90;;;0.80;;
55114;SDS011;41010;53.252;5.786;2023-05-16T01:42:41;4.30;;;0.90;;
55114;SDS011;41010;53.252;5.786;2023-05-16T01:45:11;5.40;;;0.55;;
55114;SDS011;41010;53.252;5.786;2023-05-16T01:47:41;6.13;;;0.60;;
55114;SDS011;41010;53.252;5.786;2023-05-16T01:50:12;3.15;;;0.68;;
55114;SDS011;41010;53.252;5.786;2023-05-16T01:52:41;4.47;;;0.80;;
55114;SDS011;41010;53.252;5.786;2023-05-16T01:55:13;6.25;;;0.80;;
55114;SDS011;41010;53.252;5.786;2023-05-16T01:57:42;6.53;;;0.70;;
55114;SDS011;41010;53.252;5.786;2023-05-16T02:00:11;6.60;;;0.90;;
55114;SDS011;41010;53.252;5.786;2023-05-16T02:02:38;4.55;;;0.60;;
55114;SDS011;41010;53.252;5.786;2023-05-16T02:05:06;5.07;;;0.88;;
55114;SDS011;41010;53.252;5.786;2023-05-16T02:07:33;4.80;;;0.80;;
55114;SDS011;41010;53.252;5.786;2023-05-16T02:10:01;3.35;;;0.50;;
55114;SDS011;41010;53.252;5.786;2023-05-16T02:12:29;5.55;;;0.88;;
55114;SDS011;41010;53.252;5.786;2023-05-16T02:14:57;6.07;;;1.13;;
55114;SDS011;41010;53.252;5.786;2023-05-16T02:17:24;4.88;;;0.77;;
55114;SDS011;41010;53.252;5.786;2023-05-16T02:19:52;4.82;;;0.47;;
55114;SDS011;41010;53.252;5.786;2023-05-16T02:22:19;4.38;;;0.75;;
55114;SDS011;41010;53.252;5.786;2023-05-16T02:24:46;4.15;;;0.47;;
55114;SDS011;41010;53.252;5.786;2023-05-16T02:27:13;2.00;;;0.55;;
55114;SDS011;41010;53.252;5.786;2023-05-16T02:29:41;2.40;;;0.55;;
55114;SDS011;41010;53.252;5.786;2023-05-16T02:32:09;3.03;;;0.63;;
55114;SDS011;41010;53.252;5.786;2023-05-16T02:34:36;4.28;;;0.63;;
55114;SDS011;41010;53.252;5.786;2023-05-16T02:37:04;6.68;;;0.65;;
55114;SDS011;41010;53.252;5.786;2023-05-16T02:39:31;3.17;;;0.60;;
55114;SDS011;41010;53.252;5.786;2023-05-16T02:41:58;2.47;;;0.90;;
55114;SDS011;41010;53.252;5.786;2023-05-16T02:44:25;5.85;;;0.70;;
55114;SDS011;41010;53.252;5.786;2023-05-16T02:46:53;5.40;;;0.65;;
55114;SDS011;41010;53.252;5.786;2023-05-16T02:49:21;4.55;;;0.70;;
55114;SDS011;41010;53.252;5.786;2023-05-16T02:51:48;6.40;;;0.70;;
55114;SDS011;41010;53.252;5.786;2023-05-16T02:54:16;5.88;;;0.60;;
55114;SDS011;41010;53.252;5.786;2023-05-16T02:56:43;3.42;;;0.63;;
55114;SDS011;41010;53.252;5.786;2023-05-16T02:59:10;4.53;;;0.55;;
55114;SDS011;41010;53.252;5.786;2023-05-16T03:01:38;4.82;;;0.40;;
55114;SDS011;41010;53.252;5.786;2023-05-16T03:04:05;13.70;;;0.77;;
55114;SDS011;41010;53.252;5.786;2023-05-16T03:06:34;4.30;;;0.60;;
55114;SDS011;41010;53.252;5.786;2023-05-16T03:09:01;6.97;;;0.85;;
55114;SDS011;41010;53.252;5.786;2023-05-16T03:11:28;3.60;;;0.70;;
55114;SDS011;41010;53.252;5.786;2023-05-16T03:13:55;5.05;;;0.77;;
55114;SDS011;41010;53.252;5.786;2023-05-16T03:16:24;3.55;;;0.60;;
55114;SDS011;41010;53.252;5.786;2023-05-16T03:18:51;3.50;;;0.50;;
55114;SDS011;41010;53.252;5.786;2023-05-16T03:21:18;5.85;;;0.77;;
55114;SDS011;41010;53.252;5.786;2023-05-16T03:23:47;7.63;;;0.60;;
55114;SDS011;41010;53.252;5.786;2023-05-16T03:26:14;4.95;;;0.50;;
55114;SDS011;41010;53.252;5.786;2023-05-16T03:28:41;4.88;;;0.60;;
55114;SDS011;41010;53.252;5.786;2023-05-16T03:31:09;5.22;;;0.70;;
55114;SDS011;41010;53.252;5.786;2023-05-16T03:33:36;5.93;;;0.68;;
55114;SDS011;41010;53.252;5.786;2023-05-16T03:36:03;5.53;;;0.68;;
55114;SDS011;41010;53.252;5.786;2023-05-16T03:38:30;2.80;;;0.70;;
55114;SDS011;41010;53.252;5.786;2023-05-16T03:40:59;4.20;;;0.60;;
55114;SDS011;41010;53.252;5.786;2023-05-16T03:43:26;5.30;;;0.70;;
55114;SDS011;41010;53.252;5.786;2023-05-16T03:45:54;2.55;;;0.60;;
55114;SDS011;41010;53.252;5.786;2023-05-16T03:48:21;4.97;;;0.60;;
55114;SDS011;41010;53.252;5.786;2023-05-16T03:50:48;2.78;;;0.50;;
55114;SDS011;41010;53.252;5.786;2023-05-16T03:53:16;4.93;;;0.73;;
55114;SDS011;41010;53.252;5.786;2023-05-16T03:55:43;4.00;;;0.50;;
55114;SDS011;41010;53.252;5.786;2023-05-16T03:58:12;3.28;;;0.50;;
55114;SDS011;41010;53.252;5.786;2023-05-16T04:00:40;7.53;;;0.57;;
55114;SDS011;41010;53.252;5.786;2023-05-16T04:03:07;4.20;;;0.60;;
55114;SDS011;41010;53.252;5.786;2023-05-16T04:05:35;5.72;;;0.70;;
55114;SDS011;41010;53.252;5.786;2023-05-16T04:08:02;6.03;;;0.60;;
55114;SDS011;41010;53.252;5.786;2023-05-16T04:10:30;2.78;;;0.35;;
55114;SDS011;41010;53.252;5.786;2023-05-16T04:12:57;2.45;;;0.50;;
55114;SDS011;41010;53.252;5.786;2023-05-16T04:15:26;6.38;;;1.13;;
55114;SDS011;41010;53.252;5.786;2023-05-16T04:17:53;5.95;;;0.52;;
55114;SDS011;41010;53.252;5.786;2023-05-16T04:20:20;3.15;;;0.50;;
55114;SDS011;41010;53.252;5.786;2023-05-16T04:22:48;4.53;;;0.50;;
55114;SDS011;41010;53.252;5.786;2023-05-16T04:25:16;4.03;;;0.43;;
55114;SDS011;41010;53.252;5.786;2023-05-16T04:27:43;2.58;;;0.52;;
55114;SDS011;41010;53.252;5.786;2023-05-16T04:30:10;4.85;;;0.57;;
55114;SDS011;41010;53.252;5.786;2023-05-16T04:32:39;3.85;;;0.60;;
55114;SDS011;41010;53.252;5.786;2023-05-16T04:35:07;5.10;;;0.60;;
55114;SDS011;41010;53.252;5.786;2023-05-16T04:37:34;3.60;;;0.47;;
55114;SDS011;41010;53.252;5.786;2023-05-16T04:40:02;4.63;;;0.60;;
55114;SDS011;41010;53.252;5.786;2023-05-16T04:42:30;5.13;;;0.50;;
55114;SDS011;41010;53.252;5.786;2023-05-16T04:44:58;9.70;;;0.50;;
55114;SDS011;41010;53.252;5.786;2023-05-16T04:47:25;4.20;;;0.70;;
55114;SDS011;41010;53.252;5.786;2023-05-16T04:49:54;10.60;;;0.63;;
55114;SDS011;41010;53.252;5.786;2023-05-16T04:52:21;6.88;;;0.75;;
55114;SDS011;41010;53.252;5.786;2023-05-16T04:54:49;2.28;;;0.40;;
55114;SDS011;41010;53.252;5.786;2023-05-16T04:57:17;3.25;;;0.40;;
55114;SDS011;41010;53.252;5.786;2023-05-16T04:59:44;2.88;;;0.45;;
55114;SDS011;41010;53.252;5.786;2023-05-16T05:02:11;3.15;;;0.47;;
55114;SDS011;41010;53.252;5.786;2023-05-16T05:04:38;1.35;;;0.30;;
55114;SDS011;41010;53.252;5.786;2023-05-16T05:07:07;1.55;;;0.40;;
55114;SDS011;41010;53.252;5.786;2023-05-16T05:09:34;1.55;;;0.30;;
55114;SDS011;41010;53.252;5.786;2023-05-16T05:12:02;1.63;;;0.30;;
55114;SDS011;41010;53.252;5.786;2023-05-16T05:14:29;3.33;;;0.43;;
55114;SDS011;41010;53.252;5.786;2023-05-16T05:16:56;3.47;;;0.40;;
55114;SDS011;41010;53.252;5.786;2023-05-16T05:19:23;4.47;;;0.38;;
55114;SDS011;41010;53.252;5.786;2023-05-16T05:21:50;2.70;;;0.55;;
55114;SDS011;41010;53.252;5.786;2023-05-16T05:24:19;5.90;;;0.38;;
55114;SDS011;41010;53.252;5.786;2023-05-16T05:26:46;3.22;;;0.60;;
55114;SDS011;41010;53.252;5.786;2023-05-16T05:29:13;8.05;;;0.60;;
55114;SDS011;41010;53.252;5.786;2023-05-16T05:31:41;5.85;;;0.60;;
55114;SDS011;41010;53.252;5.786;2023-05-16T05:34:08;4.43;;;0.40;;
55114;SDS011;41010;53.252;5.786;2023-05-16T05:36:35;0.98;;;0.30;;
55114;SDS011;41010;53.252;5.786;2023-05-16T05:39:02;2.17;;;0.50;;
55114;SDS011;41010;53.252;5.786;2023-05-16T05:41:31;3.38;;;0.35;;
55114;SDS011;41010;53.252;5.786;2023-05-16T05:43:58;1.85;;;0.30;;
55114;SDS011;41010;53.252;5.786;2023-05-16T05:46:26;1.13;;;0.30;;
55114;SDS011;41010;53.252;5.786;2023-05-16T05:48:53;2.25;;;0.40;;
55114;SDS011;41010;53.252;5.786;2023-05-16T05:51:20;1.83;;;0.30;;
55114;SDS011;41010;53.252;5.786;2023-05-16T05:53:48;2.88;;;0.40;;
55114;SDS011;41010;53.252;5.786;2023-05-16T05:56:15;3.60;;;0.50;;
55114;SDS011;41010;53.252;5.786;2023-05-16T05:58:44;3.20;;;0.60;;
55114;SDS011;41010;53.252;5.786;2023-05-16T06:01:11;2.05;;;0.52;;
55114;SDS011;41010;53.252;5.786;2023-05-16T06:03:38;4.53;;;0.70;;
55114;SDS011;41010;53.252;5.786;2023-05-16T06:06:06;4.30;;;0.70;;
55114;SDS011;41010;53.252;5.786;2023-05-16T06:08:33;5.93;;;0.77;;
55114;SDS011;41010;53.252;5.786;2023-05-16T06:11:01;6.82;;;0.80;;
55114;SDS011;41010;53.252;5.786;2023-05-16T06:13:28;8.15;;;0.88;;
55114;SDS011;41010;53.252;5.786;2023-05-16T06:15:56;4.13;;;0.40;;
55114;SDS011;41010;53.252;5.786;2023-05-16T06:18:24;6.95;;;0.80;;
55114;SDS011;41010;53.252;5.786;2023-05-16T06:20:51;2.88;;;0.65;;
55114;SDS011;41010;53.252;5.786;2023-05-16T06:23:18;5.50;;;0.60;;
55114;SDS011;41010;53.252;5.786;2023-05-16T06:25:46;3.30;;;0.57;;
55114;SDS011;41010;53.252;5.786;2023-05-16T06:28:13;4.40;;;0.63;;
55114;SDS011;41010;53.252;5.786;2023-05-16T06:30:40;2.97;;;0.50;;
55114;SDS011;41010;53.252;5.786;2023-05-16T06:33:09;5.78;;;0.60;;
55114;SDS011;41010;53.252;5.786;2023-05-16T06:35:36;6.20;;;0.85;;
55114;SDS011;41010;53.252;5.786;2023-05-16T06:38:03;6.70;;;0.80;;
55114;SDS011;41010;53.252;5.786;2023-05-16T06:40:30;3.50;;;0.65;;
55114;SDS011;41010;53.252;5.786;2023-05-16T06:42:58;2.45;;;0.60;;
55114;SDS011;41010;53.252;5.786;2023-05-16T06:45:25;5.10;;;0.68;;
55114;SDS011;41010;53.252;5.786;2023-05-16T06:47:52;2.58;;;0.47;;
55114;SDS011;41010;53.252;5.786;2023-05-16T06:50:21;6.40;;;0.70;;
55114;SDS011;41010;53.252;5.786;2023-05-16T06:52:48;1.88;;;0.65;;
55114;SDS011;41010;53.252;5.786;2023-05-16T06:55:16;6.38;;;0.75;;
55114;SDS011;41010;53.252;5.786;2023-05-16T06:57:43;6.38;;;0.77;;
55114;SDS011;41010;53.252;5.786;2023-05-16T07:00:10;4.57;;;0.60;;
55114;SDS011;41010;53.252;5.786;2023-05-16T07:02:38;6.80;;;0.75;;
55114;SDS011;41010;53.252;5.786;2023-05-16T07:05:05;2.58;;;0.60;;
55114;SDS011;41010;53.252;5.786;2023-05-16T07:07:34;5.47;;;0.60;;
55114;SDS011;41010;53.252;5.786;2023-05-16T07:10:01;6.03;;;0.90;;
55114;SDS011;41010;53.252;5.786;2023-05-16T07:12:28;5.97;;;0.80;;
55114;SDS011;41010;53.252;5.786;2023-05-16T07:14:55;4.70;;;0.90;;
55114;SDS011;41010;53.252;5.786;2023-05-16T07:17:23;4.85;;;0.80;;
55114;SDS011;41010;53.252;5.786;2023-05-16T07:19:50;3.67;;;0.82;;
55114;SDS011;41010;53.252;5.786;2023-05-16T07:22:17;4.65;;;0.70;;
55114;SDS011;41010;53.252;5.786;2023-05-16T07:24:46;4.82;;;0.50;;
55114;SDS011;41010;53.252;5.786;2023-05-16T07:27:13;6.13;;;0.68;;
55114;SDS011;41010;53.252;5.786;2023-05-16T07:29:41;6.65;;;1.17;;
55114;SDS011;41010;53.252;5.786;2023-05-16T07:32:08;3.03;;;0.60;;
55114;SDS011;41010;53.252;5.786;2023-05-16T07:34:35;4.45;;;0.88;;
55114;SDS011;41010;53.252;5.786;2023-05-16T07:37:03;5.03;;;0.65;;
55114;SDS011;41010;53.252;5.786;2023-05-16T07:39:36;2.88;;;0.40;;
55114;SDS011;41010;53.252;5.786;2023-05-16T07:42:05;4.13;;;0.47;;
55114;SDS011;41010;53.252;5.786;2023-05-16T07:44:33;6.78;;;0.85;;
55114;SDS011;41010;53.252;5.786;2023-05-16T07:47:00;4.05;;;0.60;;
55114;SDS011;41010;53.252;5.786;2023-05-16T07:49:27;5.35;;;1.02;;
55114;SDS011;41010;53.252;5.786;2023-05-16T07:51:55;3.85;;;0.63;;
55114;SDS011;41010;53.252;5.786;2023-05-16T07:54:22;6.90;;;0.80;;
55114;SDS011;41010;53.252;5.786;2023-05-16T07:56:49;5.00;;;0.63;;
55114;SDS011;41010;53.252;5.786;2023-05-16T07:59:18;4.30;;;0.55;;
55114;SDS011;41010;53.252;5.786;2023-05-16T08:01:45;4.05;;;0.70;;
55114;SDS011;41010;53.252;5.786;2023-05-16T08:04:12;5.40;;;0.90;;
55114;SDS011;41010;53.252;5.786;2023-05-16T08:06:39;2.70;;;0.57;;
55114;SDS011;41010;53.252;5.786;2023-05-16T08:09:07;7.75;;;0.88;;
55114;SDS011;41010;53.252;5.786;2023-05-16T08:11:34;5.45;;;0.60;;
55114;SDS011;41010;53.252;5.786;2023-05-16T08:14:01;1.95;;;0.63;;
55114;SDS011;41010;53.252;5.786;2023-05-16T08:16:30;3.70;;;0.80;;
55114;SDS011;41010;53.252;5.786;2023-05-16T08:18:58;3.22;;;0.60;;
55114;SDS011;41010;53.252;5.786;2023-05-16T08:21:25;4.18;;;0.88;;
55114;SDS011;41010;53.252;5.786;2023-05-16T08:23:53;4.32;;;0.50;;
55114;SDS011;41010;53.252;5.786;2023-05-16T08:26:21;5.97;;;0.73;;
55114;SDS011;41010;53.252;5.786;2023-05-16T08:28:48;2.67;;;0.40;;
55114;SDS011;41010;53.252;5.786;2023-05-16T08:31:16;3.13;;;0.55;;
55114;SDS011;41010;53.252;5.786;2023-05-16T08:33:44;3.47;;;0.60;;
55114;SDS011;41010;53.252;5.786;2023-05-16T08:36:11;3.97;;;0.60;;
55114;SDS011;41010;53.252;5.786;2023-05-16T08:38:40;2.13;;;0.60;;
55114;SDS011;41010;53.252;5.786;2023-05-16T08:41:07;3.67;;;0.90;;
55114;SDS011;41010;53.252;5.786;2023-05-16T08:43:34;2.13;;;0.60;;
55114;SDS011;41010;53.252;5.786;2023-05-16T08:46:01;2.58;;;0.68;;
55114;SDS011;41010;53.252;5.786;2023-05-16T08:48:29;6.30;;;1.10;;
55114;SDS011;41010;53.252;5.786;2023-05-16T08:50:59;1.77;;;0.47;;
55114;SDS011;41010;53.252;5.786;2023-05-16T08:53:30;2.65;;;0.50;;
55114;SDS011;41010;53.252;5.786;2023-05-16T08:55:58;4.47;;;0.88;;
55114;SDS011;41010;53.252;5.786;2023-05-16T08:58:25;2.03;;;0.40;;
55114;SDS011;41010;53.252;5.786;2023-05-16T09:00:54;2.65;;;0.60;;
55114;SDS011;41010;53.252;5.786;2023-05-16T09:03:21;5.85;;;0.50;;
55114;SDS011;41010;53.252;5.786;2023-05-16T09:05:49;4.75;;;0.90;;
55114;SDS011;41010;53.252;5.786;2023-05-16T09:08:18;2.80;;;0.50;;
55114;SDS011;41010;53.252;5.786;2023-05-16T09:10:45;1.85;;;0.70;;
55114;SDS011;41010;53.252;5.786;2023-05-16T09:13:12;4.10;;;0.75;;
55114;SDS011;41010;53.252;5.786;2023-05-16T09:15:40;4.63;;;0.75;;
55114;SDS011;41010;53.252;5.786;2023-05-16T09:18:10;3.20;;;1.02;;
55114;SDS011;41010;53.252;5.786;2023-05-16T09:20:41;3.13;;;0.43;;
55114;SDS011;41010;53.252;5.786;2023-05-16T09:23:11;1.75;;;0.50;;
55114;SDS011;41010;53.252;5.786;2023-05-16T09:25:39;2.70;;;0.70;;
55114;SDS011;41010;53.252;5.786;2023-05-16T09:28:09;1.85;;;0.57;;
55114;SDS011;41010;53.252;5.786;2023-05-16T09:30:36;3.65;;;0.80;;
55114;SDS011;41010;53.252;5.786;2023-05-16T09:33:05;3.50;;;0.30;;
55114;SDS011;41010;53.252;5.786;2023-05-16T09:35:33;2.83;;;0.60;;
55114;SDS011;41010;53.252;5.786;2023-05-16T09:38:00;4.95;;;0.68;;
55114;SDS011;41010;53.252;5.786;2023-05-16T09:40:27;1.05;;;0.40;;
55114;SDS011;41010;53.252;5.786;2023-05-16T09:43:02;2.42;;;0.52;;
55114;SDS011;41010;53.252;5.786;2023-05-16T09:45:30;1.70;;;0.57;;
55114;SDS011;41010;53.252;5.786;2023-05-16T09:48:00;3.90;;;0.70;;
55114;SDS011;41010;53.252;5.786;2023-05-16T09:50:28;3.63;;;0.70;;
55114;SDS011;41010;53.252;5.786;2023-05-16T09:52:55;3.42;;;0.65;;
55114;SDS011;41010;53.252;5.786;2023-05-16T09:55:22;2.03;;;0.60;;
55114;SDS011;41010;53.252;5.786;2023-05-16T09:57:50;4.45;;;0.68;;
55114;SDS011;41010;53.252;5.786;2023-05-16T10:00:19;2.60;;;0.60;;
55114;SDS011;41010;53.252;5.786;2023-05-16T10:02:46;2.67;;;0.70;;
55114;SDS011;41010;53.252;5.786;2023-05-16T10:05:13;2.92;;;0.60;;
55114;SDS011;41010;53.252;5.786;2023-05-16T10:07:41;3.55;;;0.60;;
55114;SDS011;41010;53.252;5.786;2023-05-16T10:10:10;2.75;;;0.60;;
55114;SDS011;41010;53.252;5.786;2023-05-16T10:12:38;2.72;;;0.60;;
55114;SDS011;41010;53.252;5.786;2023-05-16T10:15:07;3.25;;;0.60;;
55114;SDS011;41010;53.252;5.786;2023-05-16T10:17:36;4.40;;;0.55;;
55114;SDS011;41010;53.252;5.786;2023-05-16T10:20:06;4.68;;;0.65;;
55114;SDS011;41010;53.252;5.786;2023-05-16T10:22:34;5.40;;;0.60;;
55114;SDS011;41010;53.252;5.786;2023-05-16T10:25:07;3.60;;;0.70;;
55114;SDS011;41010;53.252;5.786;2023-05-16T10:27:36;2.03;;;0.50;;
55114;SDS011;41010;53.252;5.786;2023-05-16T10:30:04;4.43;;;0.80;;
55114;SDS011;41010;53.252;5.786;2023-05-16T10:32:33;5.28;;;0.90;;
55114;SDS011;41010;53.252;5.786;2023-05-16T10:35:03;2.03;;;0.75;;
55114;SDS011;41010;53.252;5.786;2023-05-16T10:37:30;3.95;;;0.80;;
55114;SDS011;41010;53.252;5.786;2023-05-16T10:39:58;2.25;;;0.80;;
55114;SDS011;41010;53.252;5.786;2023-05-16T10:42:26;3.00;;;0.70;;
55114;SDS011;41010;53.252;5.786;2023-05-16T10:44:53;5.13;;;0.68;;
55114;SDS011;41010;53.252;5.786;2023-05-16T10:47:21;3.47;;;0.93;;
55114;SDS011;41010;53.252;5.786;2023-05-16T10:49:48;1.25;;;0.50;;
55114;SDS011;41010;53.252;5.786;2023-05-16T10:52:17;5.05;;;0.80;;
55114;SDS011;41010;53.252;5.786;2023-05-16T10:54:48;1.73;;;0.65;;
55114;SDS011;41010;53.252;5.786;2023-05-16T10:57:17;1.92;;;0.50;;
55114;SDS011;41010;53.252;5.786;2023-05-16T10:59:46;0.82;;;0.50;;
55114;SDS011;41010;53.252;5.786;2023-05-16T11:02:21;2.10;;;0.55;;
55114;SDS011;41010;53.252;5.786;2023-05-16T11:04:48;2.30;;;1.00;;
55114;SDS011;41010;53.252;5.786;2023-05-16T11:07:17;2.60;;;0.80;;
55114;SDS011;41010;53.252;5.786;2023-05-16T11:09:49;3.05;;;0.88;;
55114;SDS011;41010;53.252;5.786;2023-05-16T11:12:19;3.67;;;1.00;;
55114;SDS011;41010;53.252;5.786;2023-05-16T11:14:48;2.60;;;0.90;;
55114;SDS011;41010;53.252;5.786;2023-05-16T11:17:19;2.20;;;0.90;;
55114;SDS011;41010;53.252;5.786;2023-05-16T11:19:47;3.25;;;1.20;;
55114;SDS011;41010;53.252;5.786;2023-05-16T11:22:23;2.97;;;0.80;;
55114;SDS011;41010;53.252;5.786;2023-05-16T11:24:52;2.63;;;0.93;;
55114;SDS011;41010;53.252;5.786;2023-05-16T11:27:19;2.92;;;1.13;;
55114;SDS011;41010;53.252;5.786;2023-05-16T11:29:47;3.90;;;1.23;;
55114;SDS011;41010;53.252;5.786;2023-05-16T11:32:17;2.47;;;0.90;;
55114;SDS011;41010;53.252;5.786;2023-05-16T11:34:45;4.57;;;1.25;;
55114;SDS011;41010;53.252;5.786;2023-05-16T11:37:13;4.72;;;1.00;;
55114;SDS011;41010;53.252;5.786;2023-05-16T11:39:42;5.70;;;1.35;;
55114;SDS011;41010;53.252;5.786;2023-05-16T11:42:09;4.10;;;0.90;;
55114;SDS011;41010;53.252;5.786;2023-05-16T11:44:37;4.70;;;1.35;;
55114;SDS011;41010;53.252;5.786;2023-05-16T11:47:04;3.13;;;1.20;;
55114;SDS011;41010;53.252;5.786;2023-05-16T11:49:32;2.97;;;1.17;;
55114;SDS011;41010;53.252;5.786;2023-05-16T11:52:00;3.05;;;1.27;;
55114;SDS011;41010;53.252;5.786;2023-05-16T11:54:27;4.65;;;1.30;;
55114;SDS011;41010;53.252;5.786;2023-05-16T11:56:56;3.72;;;1.10;;
55114;SDS011;41010;53.252;5.786;2023-05-16T11:59:24;2.92;;;1.30;;
55114;SDS011;41010;53.252;5.786;2023-05-16T12:01:51;2.53;;;1.25;;
55114;SDS011;41010;53.252;5.786;2023-05-16T12:04:19;3.97;;;1.33;;
55114;SDS011;41010;53.252;5.786;2023-05-16T12:06:57;3.72;;;1.45;;
55114;SDS011;41010;53.252;5.786;2023-05-16T12:09:25;10.38;;;1.70;;
55114;SDS011;41010;53.252;5.786;2023-05-16T12:11:53;3.70;;;1.50;;
55114;SDS011;41010;53.252;5.786;2023-05-16T12:14:21;2.65;;;1.40;;
55114;SDS011;41010;53.252;5.786;2023-05-16T12:16:50;6.25;;;1.05;;
55114;SDS011;41010;53.252;5.786;2023-05-16T12:19:18;3.33;;;1.08;;
55114;SDS011;41010;53.252;5.786;2023-05-16T12:21:45;2.38;;;1.00;;
55114;SDS011;41010;53.252;5.786;2023-05-16T12:24:13;1.95;;;0.80;;
55114;SDS011;41010;53.252;5.786;2023-05-16T12:26:41;3.17;;;0.90;;
55114;SDS011;41010;53.252;5.786;2023-05-16T12:29:09;2.63;;;0.70;;
55114;SDS011;41010;53.252;5.786;2023-05-16T12:31:38;2.72;;;0.80;;
55114;SDS011;41010;53.252;5.786;2023-05-16T12:34:15;2.50;;;0.90;;
55114;SDS011;41010;53.252;5.786;2023-05-16T12:36:42;3.15;;;1.05;;
55114;SDS011;41010;53.252;5.786;2023-05-16T12:39:10;2.88;;;1.08;;
55114;SDS011;41010;53.252;5.786;2023-05-16T12:41:39;4.30;;;1.35;;
55114;SDS011;41010;53.252;5.786;2023-05-16T12:44:09;3.65;;;1.20;;
55114;SDS011;41010;53.252;5.786;2023-05-16T12:46:41;4.20;;;1.13;;
55114;SDS011;41010;53.252;5.786;2023-05-16T12:49:08;3.85;;;1.10;;
55114;SDS011;41010;53.252;5.786;2023-05-16T12:51:35;3.22;;;1.10;;
55114;SDS011;41010;53.252;5.786;2023-05-16T12:54:07;3.35;;;1.23;;
55114;SDS011;41010;53.252;5.786;2023-05-16T12:56:35;2.92;;;1.20;;
55114;SDS011;41010;53.252;5.786;2023-05-16T12:59:03;2.17;;;1.08;;
55114;SDS011;41010;53.252;5.786;2023-05-16T13:01:30;2.83;;;1.20;;
55114;SDS011;41010;53.252;5.786;2023-05-16T13:03:59;4.10;;;1.27;;
55114;SDS011;41010;53.252;5.786;2023-05-16T13:06:26;3.00;;;1.20;;
55114;SDS011;41010;53.252;5.786;2023-05-16T13:08:53;7.70;;;1.38;;
55114;SDS011;41010;53.252;5.786;2023-05-16T13:11:21;3.05;;;1.10;;
55114;SDS011;41010;53.252;5.786;2023-05-16T13:13:49;3.28;;;1.20;;
55114;SDS011;41010;53.252;5.786;2023-05-16T13:16:16;3.70;;;1.52;;
55114;SDS011;41010;53.252;5.786;2023-05-16T13:18:43;3.13;;;1.40;;
55114;SDS011;41010;53.252;5.786;2023-05-16T13:21:12;4.45;;;1.30;;
55114;SDS011;41010;53.252;5.786;2023-05-16T13:23:40;4.88;;;1.20;;
55114;SDS011;41010;53.252;5.786;2023-05-16T13:26:07;2.65;;;1.02;;
55114;SDS011;41010;53.252;5.786;2023-05-16T13:28:34;2.33;;;1.10;;
55114;SDS011;41010;53.252;5.786;2023-05-16T13:31:02;4.15;;;1.10;;
55114;SDS011;41010;53.252;5.786;2023-05-16T13:33:29;2.22;;;0.82;;
55114;SDS011;41010;53.252;5.786;2023-05-16T13:35:56;1.80;;;0.90;;
55114;SDS011;41010;53.252;5.786;2023-05-16T13:38:25;3.25;;;1.02;;
55114;SDS011;41010;53.252;5.786;2023-05-16T13:40:52;3.13;;;1.00;;
55114;SDS011;41010;53.252;5.786;2023-05-16T13:43:20;2.63;;;1.15;;
55114;SDS011;41010;53.252;5.786;2023-05-16T13:45:47;2.40;;;0.90;;
55114;SDS011;41010;53.252;5.786;2023-05-16T13:48:14;4.30;;;1.30;;
55114;SDS011;41010;53.252;5.786;2023-05-16T13:50:41;4.68;;;1.20;;
55114;SDS011;41010;53.252;5.786;2023-05-16T13:53:09;1.98;;;0.93;;
55114;SDS011;41010;53.252;5.786;2023-05-16T13:55:37;2.97;;;0.93;;
55114;SDS011;41010;53.252;5.786;2023-05-16T13:58:05;4.00;;;0.93;;
55114;SDS011;41010;53.252;5.786;2023-05-16T14:00:32;2.17;;;0.80;;
55114;SDS011;41010;53.252;5.786;2023-05-16T14:02:59;3.35;;;0.80;;
55114;SDS011;41010;53.252;5.786;2023-05-16T14:05:26;1.90;;;0.93;;
55114;SDS011;41010;53.252;5.786;2023-05-16T14:07:54;1.92;;;0.80;;
55114;SDS011;41010;53.252;5.786;2023-05-16T14:10:21;4.47;;;0.93;;
55114;SDS011;41010;53.252;5.786;2023-05-16T14:12:50;1.27;;;0.55;;
55114;SDS011;41010;53.252;5.786;2023-05-16T14:15:17;1.42;;;0.70;;
55114;SDS011;41010;53.252;5.786;2023-05-16T14:17:45;2.72;;;0.82;;
55114;SDS011;41010;53.252;5.786;2023-05-16T14:20:12;1.85;;;0.80;;
55114;SDS011;41010;53.252;5.786;2023-05-16T14:22:39;2.03;;;0.70;;
55114;SDS011;41010;53.252;5.786;2023-05-16T14:25:07;4.05;;;0.80;;
55114;SDS011;41010;53.252;5.786;2023-05-16T14:27:34;4.05;;;1.00;;
55114;SDS011;41010;53.252;5.786;2023-05-16T14:30:03;1.92;;;0.70;;
55114;SDS011;41010;53.252;5.786;2023-05-16T14:32:32;4.30;;;1.00;;
55114;SDS011;41010;53.252;5.786;2023-05-16T14:34:59;3.63;;;0.98;;
55114;SDS011;41010;53.252;5.786;2023-05-16T14:37:26;4.18;;;0.80;;
55114;SDS011;41010;53.252;5.786;2023-05-16T14:39:54;2.00;;;1.00;;
55114;SDS011;41010;53.252;5.786;2023-05-16T14:42:21;1.92;;;0.80;;
55114;SDS011;41010;53.252;5.786;2023-05-16T14:44:48;3.90;;;1.08;;
55114;SDS011;41010;53.252;5.786;2023-05-16T14:47:17;2.05;;;0.98;;
55114;SDS011;41010;53.252;5.786;2023-05-16T14:49:44;1.48;;;0.80;;
55114;SDS011;41010;53.252;5.786;2023-05-16T14:52:11;2.05;;;0.80;;
55114;SDS011;41010;53.252;5.786;2023-05-16T14:54:39;1.75;;;0.70;;